Time;durP1;ratioP1;P1;durP2;ratioP2;P2;SDS_P1;SDS_P2;PMS_P1;PMS_P2;Temp;Humidity;BMP_temperature;BMP_pressure;BME280_temperature;BME280_humidity;BME280_pressure;Samples;Min_cycle;Max_cycle;Signal;HPM_P1;HPM_P2
2022/02/02 00:00:38;;;;;;;34.70;4.18;;;8.10;99.90;;;;;;5015751;28;20029;-74
2022/02/02 00:03:10;;;;;;;29.38;1.95;;;8.20;99.90;;;;;;5033433;28;20026;-74
2022/02/02 00:08:19;;;;;;;30.05;2.15;;;8.10;99.90;;;;;;5033378;28;20029;-78
2022/02/02 00:23:51;;;;;;;38.85;3.08;;;8.30;99.90;;;;;;5038111;28;20033;-77
2022/02/02 00:26:23;;;;;;;28.92;2.80;;;8.20;99.90;;;;;;5019068;28;20498;-77
2022/02/02 00:28:54;;;;;;;29.15;2.35;;;8.20;99.90;;;;;;5037806;28;20038;-77
2022/02/02 00:31:25;;;;;;;24.25;2.92;;;8.20;99.90;;;;;;5019289;28;20483;-77
2022/02/02 00:33:57;;;;;;;27.73;2.65;;;8.20;99.90;;;;;;5036892;28;20471;-76
2022/02/02 00:36:27;;;;;;;27.17;2.65;;;8.20;99.90;;;;;;5036997;28;20079;-77
2022/02/02 00:38:53;;;;;;;37.58;3.15;;;8.20;99.90;;;;;;5037522;28;20090;-77
2022/02/02 00:41:19;;;;;;;36.35;3.08;;;8.20;99.90;;;;;;5036811;28;20026;-77
2022/02/02 00:43:47;;;;;;;29.40;2.28;;;8.20;99.90;;;;;;5037062;28;20029;-78
2022/02/02 00:46:14;;;;;;;28.83;3.72;;;8.10;99.90;;;;;;5018851;28;20044;-76
2022/02/02 00:48:39;;;;;;;23.38;2.78;;;8.10;99.90;;;;;;5018781;28;20022;-76
2022/02/02 00:51:06;;;;;;;29.25;2.28;;;8.10;99.90;;;;;;5036491;28;20030;-77
2022/02/02 00:53:31;;;;;;;22.23;2.53;;;8.00;99.90;;;;;;5018389;28;20018;-76
2022/02/02 00:55:57;;;;;;;32.97;2.17;;;8.10;99.90;;;;;;5018516;28;20483;-76
2022/02/02 00:58:22;;;;;;;31.33;3.13;;;8.00;99.90;;;;;;5036347;28;20513;-76
2022/02/02 01:00:48;;;;;;;23.35;3.15;;;8.00;99.90;;;;;;5018277;28;20025;-76
2022/02/02 01:03:14;;;;;;;33.63;3.10;;;8.00;99.90;;;;;;5036246;28;20017;-76
2022/02/02 01:05:39;;;;;;;43.65;3.63;;;8.00;99.90;;;;;;5018249;28;20017;-76
2022/02/02 01:10:46;;;;;;;23.65;2.55;;;8.00;99.90;;;;;;5036242;28;20025;-77
2022/02/02 01:20:52;;;;;;;33.20;3.70;;;7.90;99.90;;;;;;5035955;28;20532;-76
2022/02/02 01:28:30;;;;;;;32.13;4.15;;;7.90;99.90;;;;;;5035044;28;20518;-76
2022/02/02 01:30:56;;;;;;;26.30;3.35;;;7.90;99.90;;;;;;5035498;28;20021;-76
2022/02/02 01:33:22;;;;;;;31.33;3.45;;;7.80;99.90;;;;;;5035311;28;20029;-77
2022/02/02 01:35:49;;;;;;;29.00;3.28;;;7.80;99.90;;;;;;5017945;28;20064;-75
2022/02/02 01:38:15;;;;;;;31.08;2.90;;;7.70;99.90;;;;;;5035587;28;20033;-76
2022/02/02 01:40:46;;;;;;;34.88;3.45;;;7.70;99.90;;;;;;5017567;28;20021;-76
2022/02/02 01:43:17;;;;;;;20.27;3.63;;;7.70;99.90;;;;;;5017464;28;20375;-75
2022/02/02 01:45:50;;;;;;;34.20;3.38;;;7.70;99.90;;;;;;5017562;28;20025;-76
2022/02/02 01:55:52;;;;;;;21.20;1.65;;;7.50;99.90;;;;;;5035306;28;20025;-76
2022/02/02 02:01:12;;;;;;;32.28;4.00;;;7.50;99.90;;;;;;4964245;28;20619;-76
2022/02/02 02:03:38;;;;;;;29.98;2.65;;;7.60;99.90;;;;;;5017202;28;20040;-76
2022/02/02 02:06:05;;;;;;;22.00;1.95;;;7.60;99.90;;;;;;5034827;28;20025;-77
2022/02/02 02:08:31;;;;;;;18.60;1.75;;;7.60;99.90;;;;;;5034772;28;20029;-77
2022/02/02 02:10:58;;;;;;;35.47;2.35;;;7.60;99.90;;;;;;5017500;28;20109;-77
2022/02/02 02:16:02;;;;;;;24.65;3.30;;;7.70;99.90;;;;;;5034985;28;20029;-77
2022/02/02 02:18:28;;;;;;;30.25;3.05;;;7.80;99.90;;;;;;5017250;28;20025;-77
2022/02/02 02:20:55;;;;;;;40.47;3.13;;;7.80;99.90;;;;;;5016848;28;20032;-77
2022/02/02 02:23:21;;;;;;;30.23;3.03;;;7.80;99.90;;;;;;5034742;28;20049;-78
2022/02/02 02:25:47;;;;;;;21.30;3.28;;;7.80;99.90;;;;;;5034377;28;20061;-77
2022/02/02 02:28:27;;;;;;;23.58;2.10;;;7.80;99.90;;;;;;5034833;28;20021;-77
2022/02/02 02:30:58;;;;;;;34.67;2.95;;;7.80;99.90;;;;;;5016791;28;20025;-77
2022/02/02 02:39:17;;;;;;;30.98;2.35;;;7.90;99.90;;;;;;5034273;28;20483;-77
2022/02/02 02:58:50;;;;;;;33.30;2.88;;;7.90;99.90;;;;;;5034782;28;20099;-77
2022/02/02 03:30:58;;;;;;;29.23;3.47;;;8.10;99.90;;;;;;5033592;28;20151;-77
2022/02/02 04:07:52;;;;;;;24.60;3.10;;;8.20;99.90;;;;;;5038413;28;20088;-78
2022/02/02 04:10:18;;;;;;;34.80;3.28;;;8.20;99.90;;;;;;5019464;28;20485;-77
2022/02/02 05:02:03;;;;;;;16.27;2.38;;;8.00;99.90;;;;;;5035878;28;20121;-76
2022/02/02 05:04:41;;;;;;;36.70;5.93;;;7.90;99.90;;;;;;5035384;28;20032;-77
2022/02/02 05:06:54;;;;;;;24.50;0.93;;;7.90;99.90;;;;;;5035448;28;20025;-76
2022/02/02 05:15:38;;;;;;;30.17;2.42;;;7.90;99.90;;;;;;5036730;28;20128;-77
2022/02/02 05:50:25;;;;;;;27.42;2.55;;;7.70;99.90;;;;;;5035912;28;20423;-76
2022/02/02 05:52:51;;;;;;;26.40;2.58;;;7.70;99.90;;;;;;5017488;28;20439;-76
2022/02/02 05:55:17;;;;;;;24.88;2.08;;;7.60;99.90;;;;;;5035036;28;20108;-76
2022/02/02 05:57:45;;;;;;;23.88;3.65;;;7.60;99.90;;;;;;5017223;28;20112;-76
2022/02/02 06:00:12;;;;;;;22.63;1.37;;;7.60;99.90;;;;;;5017143;28;20116;-76
2022/02/02 06:02:38;;;;;;;24.23;4.32;;;7.60;99.90;;;;;;5034711;28;20249;-76
2022/02/02 06:05:07;;;;;;;25.48;2.08;;;7.60;99.90;;;;;;5034911;28;20395;-76
2022/02/02 06:07:38;;;;;;;21.23;2.88;;;7.60;99.90;;;;;;5034714;28;20033;-75
2022/02/02 06:10:07;;;;;;;25.20;2.10;;;7.60;99.90;;;;;;5035221;28;20017;-75
2022/02/02 06:12:33;;;;;;;21.83;1.20;;;7.60;99.90;;;;;;5035200;28;20107;-77
2022/02/02 06:15:06;;;;;;;29.42;1.88;;;7.60;99.90;;;;;;5016563;28;20022;-76
2022/02/02 06:17:38;;;;;;;18.80;2.17;;;7.50;99.90;;;;;;5017018;28;20091;-76
2022/02/02 06:20:04;;;;;;;16.58;0.63;;;7.40;99.90;;;;;;5016777;28;20390;-76
2022/02/02 06:22:32;;;;;;;27.15;2.28;;;7.40;99.90;;;;;;5016769;28;20479;-77
2022/02/02 06:25:03;;;;;;;22.20;3.70;;;7.30;99.90;;;;;;5034455;28;20033;-77
2022/02/02 06:27:32;;;;;;;25.95;1.55;;;7.30;99.90;;;;;;5016984;28;20463;-77
2022/02/02 06:30:08;;;;;;;28.45;2.75;;;7.20;99.90;;;;;;5016692;28;20064;-77
2022/02/02 06:32:49;;;;;;;17.30;2.95;;;7.10;99.90;;;;;;5017122;28;20332;-72
2022/02/02 06:35:16;;;;;;;30.02;1.27;;;7.00;99.90;;;;;;5034229;28;20018;-76
2022/02/02 06:37:43;;;;;;;26.45;1.77;;;7.00;99.90;;;;;;5016462;28;20017;-76
2022/02/02 06:40:11;;;;;;;25.17;1.90;;;7.00;99.90;;;;;;5034141;28;20026;-75
2022/02/02 06:42:37;;;;;;;36.10;3.47;;;7.00;99.90;;;;;;5034237;28;20104;-76
2022/02/02 06:45:04;;;;;;;25.88;2.92;;;7.00;99.90;;;;;;5016356;28;20083;-76
2022/02/02 06:47:30;;;;;;;24.65;3.50;;;7.00;99.90;;;;;;5016336;28;20029;-75
2022/02/02 06:50:05;;;;;;;28.10;2.17;;;7.00;99.90;;;;;;5033925;28;20032;-75
2022/02/02 06:52:42;;;;;;;32.15;4.80;;;7.00;99.90;;;;;;5016063;28;20052;-76
2022/02/02 06:55:24;;;;;;;30.38;2.65;;;7.10;99.90;;;;;;5033898;28;20034;-76
2022/02/02 06:58:14;;;;;;;23.83;2.47;;;7.10;99.90;;;;;;5033727;28;20040;-76
2022/02/02 07:04:23;;;;;;;28.48;1.70;;;7.20;99.90;;;;;;5033847;28;20088;-75
2022/02/02 07:09:20;;;;;;;31.77;4.13;;;7.30;99.90;;;;;;5043626;28;20079;-75
2022/02/02 07:12:05;;;;;;;21.70;3.03;;;7.30;99.90;;;;;;5035511;28;20538;-77
2022/02/02 07:17:37;;;;;;;31.45;2.55;;;7.20;99.90;;;;;;5053267;28;20538;-76
2022/02/02 07:20:13;;;;;;;28.80;2.20;;;7.10;99.90;;;;;;5053382;28;20033;-76
2022/02/02 07:25:27;;;;;;;34.58;4.45;;;7.10;99.90;;;;;;5052802;28;20037;-77
2022/02/02 07:33:10;;;;;;;22.48;2.97;;;6.90;99.90;;;;;;5053176;28;20033;-75
2022/02/02 07:35:54;;;;;;;26.95;2.60;;;6.90;99.90;;;;;;5035391;28;20082;-75
2022/02/02 07:38:26;;;;;;;35.40;2.75;;;6.90;99.90;;;;;;5053160;28;20052;-75
2022/02/02 07:40:58;;;;;;;33.20;2.53;;;6.90;99.90;;;;;;5035198;28;20029;-75
2022/02/02 07:43:31;;;;;;;26.23;2.63;;;6.90;99.90;;;;;;5035052;28;20532;-76
2022/02/02 07:46:10;;;;;;;24.10;2.42;;;6.90;99.90;;;;;;5053257;28;20021;-76
2022/02/02 07:48:39;;;;;;;31.88;3.20;;;6.90;99.90;;;;;;5035155;28;20108;-75
2022/02/02 07:51:06;;;;;;;;;;;6.90;99.90;;;;;;5035433;28;20390;-74
2022/02/02 07:53:40;;;;;;;26.58;2.38;;;7.00;99.90;;;;;;5053040;28;20007;-76
2022/02/02 07:56:13;;;;;;;34.85;2.50;;;7.00;99.90;;;;;;5053000;28;20479;-76
2022/02/02 07:58:45;;;;;;;22.77;2.22;;;7.00;99.90;;;;;;5035211;28;20032;-75
2022/02/02 08:01:13;;;;;;;29.30;4.07;;;7.00;99.90;;;;;;5053023;28;20021;-73
2022/02/02 08:03:42;;;;;;;24.33;1.60;;;7.10;99.90;;;;;;5035157;28;20029;-75
2022/02/02 08:06:08;;;;;;;;;;;7.20;99.90;;;;;;5053351;28;20104;-75
2022/02/02 08:08:39;;;;;;;31.27;2.67;;;7.20;99.90;;;;;;5035084;28;19905;-75
2022/02/02 08:11:10;;;;;;;50.47;2.67;;;7.30;99.90;;;;;;5034931;28;20021;-74
2022/02/02 08:13:43;;;;;;;27.77;3.15;;;7.30;99.90;;;;;;5052875;28;20025;-75
2022/02/02 08:16:12;;;;;;;25.73;2.05;;;7.40;99.90;;;;;;5035059;28;20501;-74
2022/02/02 08:18:41;;;;;;;26.00;2.35;;;7.40;99.90;;;;;;5052996;28;20502;-75
2022/02/02 08:21:07;;;;;;;37.50;4.70;;;7.40;99.90;;;;;;5052584;28;20025;-76
2022/02/02 08:23:34;;;;;;;26.55;2.92;;;7.40;99.90;;;;;;5034891;28;20032;-76
2022/02/02 08:26:00;;;;;;;26.13;3.10;;;7.50;99.90;;;;;;5052840;28;20025;-75
2022/02/02 08:28:26;;;;;;;39.67;3.47;;;7.50;99.90;;;;;;5035084;28;20028;-75
2022/02/02 08:30:52;;;;;;;30.20;2.97;;;7.60;99.90;;;;;;5052569;28;20029;-75
2022/02/02 08:33:24;;;;;;;31.90;2.90;;;7.60;99.90;;;;;;5052831;28;20028;-75
2022/02/02 08:35:55;;;;;;;40.80;3.97;;;7.70;99.90;;;;;;5052609;28;20029;-77
2022/02/02 08:40:59;;;;;;;31.63;2.42;;;7.80;99.90;;;;;;5056659;28;20049;-75
2022/02/02 08:43:34;;;;;;;29.73;3.40;;;7.80;99.90;;;;;;5038341;28;20040;-74
2022/02/02 08:46:07;;;;;;;20.88;2.70;;;7.80;99.90;;;;;;5038305;28;20437;-75
2022/02/02 08:48:34;;;;;;;31.35;2.22;;;7.90;99.90;;;;;;5038362;28;20029;-74
2022/02/02 08:51:04;;;;;;;22.42;2.40;;;7.90;99.90;;;;;;5038371;28;20021;-74
2022/02/02 08:58:43;;;;;;;25.83;3.30;;;7.90;99.90;;;;;;5056361;28;20025;-76
2022/02/02 09:01:15;;;;;;;21.85;2.80;;;8.00;99.90;;;;;;5056108;28;20485;-72
2022/02/02 09:06:26;;;;;;;26.67;3.20;;;8.10;99.90;;;;;;5056250;28;20108;-73
2022/02/02 09:09:01;;;;;;;15.98;1.13;;;8.10;99.90;;;;;;5056084;28;20048;-73
2022/02/02 09:25:10;;;;;;;21.73;1.48;;;8.50;99.90;;;;;;5055413;28;20498;-76
2022/02/02 09:35:36;;;;;;;19.42;1.67;;;8.70;99.90;;;;;;5056084;28;20033;-76
2022/02/02 09:38:02;;;;;;;18.63;1.65;;;8.90;99.90;;;;;;5037463;28;20436;-76
2022/02/02 09:43:18;;;;;;;24.27;1.23;;;9.00;99.90;;;;;;5055365;28;20028;-77
2022/02/02 09:45:45;;;;;;;15.60;1.98;;;9.00;99.90;;;;;;5055700;28;20477;-77
2022/02/02 09:48:21;;;;;;;22.00;3.05;;;9.10;99.90;;;;;;5054395;28;20013;-77
2022/02/02 09:50:52;;;;;;;22.35;2.08;;;9.10;99.90;;;;;;5037249;28;20054;-78
2022/02/02 09:53:31;;;;;;;30.60;3.28;;;9.10;99.90;;;;;;5037153;28;20478;-75
2022/02/02 09:56:11;;;;;;;21.13;1.27;;;9.20;99.90;;;;;;5055028;28;20552;-77
2022/02/02 10:01:56;;;;;;;19.95;1.27;;;9.20;99.90;;;;;;4974046;28;20138;-75
2022/02/02 10:04:36;;;;;;;21.70;1.92;;;9.20;99.90;;;;;;5030345;28;20036;-75
2022/02/02 10:07:34;;;;;;;20.40;1.52;;;9.40;99.90;;;;;;5054836;28;20028;-74
2022/02/02 10:13:04;;;;;;;25.23;3.17;;;9.60;99.90;;;;;;5054921;28;20041;-75
2022/02/02 10:15:34;;;;;;;21.15;2.20;;;9.60;99.90;;;;;;5036648;28;20021;-74
2022/02/02 10:18:04;;;;;;;22.33;2.45;;;9.70;99.90;;;;;;5036618;28;20477;-74
2022/02/02 10:20:30;;;;;;;18.55;2.97;;;9.70;99.90;;;;;;5037029;28;20013;-74
2022/02/02 10:22:58;;;;;;;23.70;1.92;;;9.80;99.90;;;;;;5036545;28;20074;-75
2022/02/02 10:25:36;;;;;;;24.33;3.00;;;9.90;99.90;;;;;;5054581;28;20486;-73
2022/02/02 10:28:12;;;;;;;24.33;3.33;;;10.10;99.90;;;;;;5036739;28;20021;-74
2022/02/02 10:30:43;;;;;;;25.75;2.80;;;10.20;99.90;;;;;;5054816;28;20075;-75
2022/02/02 10:33:21;;;;;;;22.92;3.05;;;10.20;99.90;;;;;;5036500;28;20478;-74
2022/02/02 10:35:48;;;;;;;20.55;2.78;;;10.30;99.90;;;;;;5054256;28;20020;-74
2022/02/02 10:38:20;;;;;;;20.15;2.42;;;10.20;99.90;;;;;;5036224;28;20389;-74
2022/02/02 10:40:54;;;;;;;26.15;4.35;;;10.20;99.90;;;;;;5054525;28;20025;-75
2022/02/02 10:43:41;;;;;;;27.30;3.13;;;10.20;99.90;;;;;;5036240;28;20032;-75
2022/02/02 10:46:12;;;;;;;23.50;1.40;;;10.20;99.90;;;;;;5036406;28;20497;-75
2022/02/02 10:48:46;;;;;;;25.63;2.22;;;10.20;99.90;;;;;;5054054;28;20028;-75
2022/02/02 10:51:22;;;;;;;21.85;3.60;;;10.30;99.90;;;;;;5054534;28;20033;-73
2022/02/02 10:54:25;;;;;;;28.75;3.28;;;10.30;99.90;;;;;;5054418;28;20025;-74
2022/02/02 10:56:57;;;;;;;30.17;2.08;;;10.40;99.90;;;;;;5053185;28;20036;-74
2022/02/02 11:07:17;;;;;;;15.23;2.75;;;10.40;99.90;;;;;;5054255;28;20112;-76
2022/02/02 11:09:47;;;;;;;19.85;3.42;;;10.50;99.90;;;;;;5035705;28;20119;-74
2022/02/02 11:12:14;;;;;;;17.10;0.98;;;10.50;99.90;;;;;;5053732;28;20428;-74
2022/02/02 11:15:06;;;;;;;18.00;1.30;;;10.40;99.90;;;;;;5053978;28;20095;-75
2022/02/02 11:17:49;;;;;;;23.02;3.45;;;10.40;99.90;;;;;;5035752;28;20033;-77
2022/02/02 11:20:17;;;;;;;14.00;1.90;;;10.30;99.90;;;;;;5053651;28;20032;-75
2022/02/02 11:23:00;;;;;;;21.45;2.22;;;10.30;99.90;;;;;;5054222;28;20036;-77
2022/02/02 11:25:33;;;;;;;22.38;1.83;;;10.40;99.90;;;;;;5053858;28;20033;-78
2022/02/02 11:28:02;;;;;;;16.45;1.27;;;10.60;99.90;;;;;;5053751;28;20013;-77
2022/02/02 11:30:28;;;;;;;16.13;1.15;;;10.70;99.90;;;;;;5053769;28;20028;-77
2022/02/02 11:33:01;;;;;;;15.15;1.35;;;10.70;99.90;;;;;;5053374;28;20075;-77
2022/02/02 11:35:41;;;;;;;17.27;1.50;;;10.70;99.90;;;;;;5035591;28;20389;-77
2022/02/02 11:38:21;;;;;;;19.38;2.40;;;10.80;99.90;;;;;;5053893;28;20017;-77
2022/02/02 11:46:39;;;;;;;23.52;2.78;;;11.00;99.90;;;;;;5054164;28;20029;-77
2022/02/02 11:49:13;;;;;;;16.92;1.23;;;11.10;99.90;;;;;;5053318;28;20100;-77
2022/02/02 11:51:47;;;;;;;12.88;0.85;;;11.20;99.90;;;;;;5053640;28;20025;-77
2022/02/02 11:54:18;;;;;;;18.27;2.63;;;11.30;99.90;;;;;;5053236;28;20037;-77
2022/02/02 11:57:02;;;;;;;15.80;1.23;;;11.30;99.90;;;;;;5027923;28;20494;-77
2022/02/02 12:02:29;;;;;;;10.65;1.15;;;11.40;99.90;;;;;;5036188;28;20119;-74
2022/02/02 12:05:03;;;;;;;13.40;1.80;;;11.50;99.90;;;;;;5052824;28;20021;-72
2022/02/02 12:57:49;;;;;;;11.20;0.93;;;11.20;99.90;;;;;;5056116;28;20040;-75
2022/02/02 13:00:24;;;;;;;15.80;0.98;;;11.20;99.90;;;;;;5056322;28;20021;-75
2022/02/02 13:02:51;;;;;;;16.70;1.15;;;11.30;99.90;;;;;;5055930;28;20021;-76
2022/02/02 13:05:24;;;;;;;17.80;1.98;;;11.30;99.90;;;;;;5038048;28;20060;-74
2022/02/02 13:07:53;;;;;;;11.95;0.88;;;11.20;99.90;;;;;;5035963;28;20101;-76
2022/02/02 13:10:22;;;;;;;17.92;0.73;;;11.40;99.90;;;;;;5018164;28;20113;-75
2022/02/02 13:18:01;;;;;;;14.18;1.27;;;11.30;99.90;;;;;;5055889;28;20029;-74
2022/02/02 13:29:09;;;;;;;6.25;0.28;;;11.20;99.90;;;;;;5035843;28;20037;-76
2022/02/02 13:31:44;;;;;;;;;;;11.20;99.90;;;;;;5035910;28;20502;-75
2022/02/02 13:34:19;;;;;;;14.85;1.10;;;11.20;99.90;;;;;;5018124;28;20003;-74
2022/02/02 13:37:15;;;;;;;14.73;1.27;;;11.20;99.90;;;;;;5035996;28;20364;-74
2022/02/02 13:42:48;;;;;;;18.10;2.03;;;11.20;99.90;;;;;;5035416;28;20056;-75
2022/02/02 14:04:33;;;;;;;12.82;0.95;;;12.10;99.90;;;;;;5050180;28;20379;-75
2022/02/02 14:31:08;;;;;;;10.55;0.45;;;14.70;96.20;;;;;;5054678;28;20536;-76
2022/02/02 14:33:38;;;;;;;16.17;1.13;;;14.60;95.50;;;;;;5045805;28;20033;-76
2022/02/02 14:36:06;;;;;;;12.43;0.63;;;14.50;95.80;;;;;;5034222;28;20022;-76
2022/02/02 14:43:42;;;;;;;7.80;0.93;;;14.30;97.80;;;;;;5034412;28;20026;-75
2022/02/02 14:46:11;;;;;;;12.48;1.20;;;14.70;97.30;;;;;;5021230;28;20478;-76
2022/02/02 14:48:45;;;;;;;13.02;1.98;;;14.20;97.40;;;;;;5054422;28;20405;-75
2022/02/02 14:53:53;;;;;;;11.88;1.52;;;14.20;98.70;;;;;;5054721;28;20024;-75
2022/02/02 15:05:17;;;;;;;11.93;2.13;;;14.20;98.00;;;;;;5035877;28;20051;-75
2022/02/02 15:32:08;;;;;;;8.77;1.02;;;11.30;99.90;;;;;;5041377;28;20040;-76
2022/02/02 15:34:47;;;;;;;20.40;0.98;;;11.00;99.90;;;;;;5035360;28;20025;-76
2022/02/02 15:39:46;;;;;;;12.68;0.68;;;10.70;99.90;;;;;;5053504;28;20033;-75
2022/02/02 15:58:21;;;;;;;7.38;0.50;;;10.00;99.90;;;;;;5034250;28;20096;-76
2022/02/02 16:03:32;;;;;;;13.27;1.45;;;9.90;99.90;;;;;;5033945;28;20442;-75
2022/02/02 16:06:07;;;;;;;15.15;1.77;;;9.80;99.90;;;;;;5050392;28;20017;-75
2022/02/02 16:08:35;;;;;;;17.77;2.22;;;9.70;99.90;;;;;;5042211;28;20018;-76
2022/02/02 16:11:14;;;;;;;14.23;1.50;;;9.70;99.90;;;;;;5033223;28;20030;-76
2022/02/02 16:13:44;;;;;;;10.93;1.05;;;9.60;99.90;;;;;;5032972;28;20310;-75
2022/02/02 16:18:55;;;;;;;16.42;2.03;;;9.40;99.90;;;;;;5034056;28;20034;-75
2022/02/02 16:37:28;;;;;;;11.27;2.00;;;9.10;99.90;;;;;;5033103;28;20072;-76
2022/02/02 16:39:57;;;;;;;10.55;1.85;;;9.10;99.90;;;;;;5014998;28;20471;-76
2022/02/02 16:45:08;;;;;;;14.40;0.82;;;9.10;99.90;;;;;;5033317;28;20032;-76
2022/02/02 16:47:33;;;;;;;7.90;0.73;;;9.20;99.90;;;;;;5014881;28;20021;-76
2022/02/02 16:49:59;;;;;;;12.13;1.38;;;9.20;99.90;;;;;;5041312;28;20355;-76
2022/02/02 16:52:26;;;;;;;8.93;0.68;;;9.20;99.90;;;;;;5052518;28;20025;-75
2022/02/02 16:54:53;;;;;;;9.82;0.85;;;9.20;99.90;;;;;;5052588;28;20047;-76
2022/02/02 17:32:37;;;;;;;7.40;1.00;;;9.20;99.90;;;;;;5042349;28;20033;-79
2022/02/02 17:37:48;;;;;;;8.10;0.95;;;9.20;99.90;;;;;;5056995;28;20121;-80
2022/02/02 17:45:40;;;;;;;6.78;0.50;;;9.20;99.90;;;;;;5061736;28;20379;-79
2022/02/02 18:15:51;;;;;;;7.13;0.70;;;9.10;99.90;;;;;;5035042;28;20034;-75
2022/02/02 18:20:31;;;;;;;7.47;1.25;;;9.10;99.90;;;;;;5035449;28;20029;-75
2022/02/02 18:23:23;;;;;;;6.65;1.70;;;9.10;99.90;;;;;;5033533;28;20043;-75
2022/02/02 18:25:47;;;;;;;8.27;0.50;;;9.10;99.90;;;;;;5050429;28;20075;-75
2022/02/02 18:28:22;;;;;;;5.25;1.00;;;9.10;99.90;;;;;;5036581;28;20029;-75
2022/02/02 18:33:29;;;;;;;8.40;1.40;;;9.10;99.90;;;;;;5054453;28;20040;-75
2022/02/02 18:36:18;;;;;;;8.75;1.60;;;9.00;99.90;;;;;;5054272;28;20025;-75
2022/02/02 18:46:53;;;;;;;8.02;2.50;;;9.00;99.90;;;;;;5054106;28;20390;-76
2022/02/02 19:02:10;;;;;;;13.20;2.92;;;8.90;99.90;;;;;;5053825;28;20065;-77
2022/02/02 19:05:10;;;;;;;13.02;2.90;;;8.90;99.90;;;;;;5035920;28;20033;-77
2022/02/02 19:37:49;;;;;;;13.23;4.90;;;8.80;99.90;;;;;;5054026;28;20040;-77
2022/02/02 19:40:24;;;;;;;11.35;4.65;;;8.90;99.90;;;;;;5053406;28;20029;-77
2022/02/02 19:52:26;;;;;;;14.38;5.32;;;8.80;99.90;;;;;;5035679;28;20044;-79
2022/02/02 20:01:52;;;;;;;16.95;6.40;;;8.80;99.90;;;;;;5033882;28;20127;-76
2022/02/02 20:07:09;;;;;;;21.20;7.70;;;8.90;99.90;;;;;;5033465;28;20036;-78
2022/02/02 20:12:39;;;;;;;21.80;7.93;;;8.90;99.90;;;;;;4972550;28;20417;-78
2022/02/02 20:15:07;;;;;;;22.20;8.25;;;8.80;99.90;;;;;;5004605;28;20029;-79
2022/02/02 20:17:34;;;;;;;22.80;8.45;;;8.80;99.90;;;;;;5015960;28;20666;-79
2022/02/02 20:20:12;;;;;;;20.25;7.85;;;8.90;99.90;;;;;;5033610;28;20021;-79
2022/02/02 20:22:38;;;;;;;24.27;9.15;;;8.90;99.90;;;;;;5046813;28;20414;-76
2022/02/02 20:25:04;;;;;;;25.95;9.48;;;8.90;99.90;;;;;;5035300;28;20029;-79
2022/02/02 20:27:33;;;;;;;31.27;10.63;;;8.90;99.90;;;;;;5053493;28;20536;-79
2022/02/02 20:30:00;;;;;;;23.05;9.25;;;10.40;99.90;;;;;;5035455;28;20035;-78
2022/02/02 20:32:26;;;;;;;27.25;9.57;;;8.90;99.90;;;;;;5054162;28;20057;-79
2022/02/02 20:34:52;;;;;;;26.88;10.38;;;8.80;99.90;;;;;;5054312;28;20104;-77
2022/02/02 20:37:19;;;;;;;29.95;10.13;;;8.90;99.90;;;;;;5036923;28;20057;-78
2022/02/02 20:39:59;;;;;;;31.13;11.68;;;8.80;99.90;;;;;;5019596;28;20021;-78
2022/02/02 20:42:35;;;;;;;31.27;9.88;;;8.90;99.90;;;;;;5019166;28;20021;-78
2022/02/02 21:03:53;;;;;;;24.35;9.27;;;8.80;99.90;;;;;;5037149;28;20120;-79
2022/02/02 21:06:42;;;;;;;25.75;8.15;;;8.90;99.90;;;;;;5036830;28;20541;-79
2022/02/02 21:13:38;;;;;;;18.50;7.65;;;8.90;99.90;;;;;;5057137;28;20121;-79
2022/02/02 21:14:41;;;;;;;23.60;8.40;;;8.90;99.90;;;;;;5056194;28;20033;-78
2022/02/02 21:17:17;;;;;;;22.05;7.95;;;8.90;99.90;;;;;;5056624;28;20029;-78
2022/02/02 21:19:51;;;;;;;23.50;9.25;;;9.00;99.90;;;;;;5056473;28;20029;-79
2022/02/02 21:22:19;;;;;;;25.83;7.88;;;9.00;99.90;;;;;;5037584;28;20098;-76
2022/02/02 21:24:53;;;;;;;22.05;8.68;;;9.00;99.90;;;;;;5017980;28;20028;-76
2022/02/02 21:27:25;;;;;;;24.45;9.52;;;9.00;99.90;;;;;;5036058;28;20041;-75
2022/02/02 21:29:50;;;;;;;28.30;10.32;;;8.90;99.90;;;;;;5019014;28;20079;-78
2022/02/02 21:32:17;;;;;;;24.85;8.68;;;8.90;99.90;;;;;;5036329;28;20025;-78
2022/02/02 21:34:43;;;;;;;23.88;9.55;;;8.90;99.90;;;;;;5037508;28;20018;-79
2022/02/02 21:37:13;;;;;;;24.77;9.18;;;8.80;99.90;;;;;;5037509;28;20470;-76
2022/02/02 21:39:51;;;;;;;24.98;8.40;;;8.80;99.90;;;;;;5038851;28;20033;-77
2022/02/02 21:42:17;;;;;;;24.00;9.32;;;8.90;99.90;;;;;;5019884;28;20260;-78
2022/02/02 21:44:42;;;;;;;24.73;9.75;;;8.90;99.90;;;;;;5034855;28;20017;-78
2022/02/02 21:47:10;;;;;;;24.42;9.98;;;8.90;99.90;;;;;;5018832;28;20047;-76
2022/02/02 21:49:36;;;;;;;23.42;9.48;;;8.90;99.90;;;;;;5036872;28;20017;-78
2022/02/02 21:52:06;;;;;;;24.98;8.18;;;8.90;99.90;;;;;;5017742;28;20052;-78
2022/02/02 21:54:32;;;;;;;19.98;7.25;;;8.90;99.90;;;;;;5023356;28;20021;-78
2022/02/02 21:56:59;;;;;;;20.60;8.13;;;8.80;99.90;;;;;;5025632;28;20034;-78
2022/02/02 21:59:25;;;;;;;16.95;6.63;;;8.90;99.90;;;;;;5047519;28;20057;-78
2022/02/02 22:01:51;;;;;;;18.35;7.43;;;8.90;99.90;;;;;;5049607;28;20018;-78
2022/02/02 22:04:16;;;;;;;18.27;7.40;;;8.90;99.90;;;;;;5025703;28;20032;-78
2022/02/02 22:06:42;;;;;;;20.63;6.22;;;8.80;99.90;;;;;;5054927;28;20101;-78
2022/02/02 22:09:07;;;;;;;16.95;6.50;;;8.80;99.90;;;;;;5037015;28;20025;-78
2022/02/02 22:11:33;;;;;;;20.38;6.82;;;8.80;99.90;;;;;;5036934;28;20071;-78
2022/02/02 22:14:03;;;;;;;19.05;7.53;;;8.80;99.90;;;;;;5055946;28;20386;-79
2022/02/02 22:16:29;;;;;;;16.73;6.65;;;8.80;99.90;;;;;;5054821;28;20104;-78
2022/02/02 22:18:55;;;;;;;20.92;6.85;;;8.80;99.90;;;;;;5033473;28;20067;-78
2022/02/02 22:21:21;;;;;;;18.20;6.60;;;8.80;99.90;;;;;;5054590;28;20025;-79
2022/02/02 22:23:47;;;;;;;16.33;6.43;;;8.80;99.90;;;;;;5036980;28;20097;-79
2022/02/02 22:26:15;;;;;;;18.92;6.80;;;8.80;99.90;;;;;;5036610;28;20033;-79
2022/02/02 22:28:41;;;;;;;17.08;6.03;;;8.80;99.90;;;;;;5054683;28;20025;-77
2022/02/02 22:31:07;;;;;;;20.45;7.10;;;8.80;99.90;;;;;;5036513;28;20036;-78
2022/02/02 22:33:32;;;;;;;19.90;7.28;;;8.80;99.90;;;;;;5027967;28;20032;-78
2022/02/02 22:36:00;;;;;;;15.05;6.90;;;8.80;99.90;;;;;;5016872;28;20466;-77
2022/02/02 22:38:26;;;;;;;20.52;7.18;;;8.80;99.90;;;;;;5042381;28;20020;-78
2022/02/02 22:40:53;;;;;;;19.83;7.38;;;8.80;99.90;;;;;;5036537;28;20078;-78
2022/02/02 22:43:18;;;;;;;17.55;7.03;;;8.80;99.90;;;;;;5036285;28;20032;-78
2022/02/02 22:45:46;;;;;;;18.55;6.90;;;8.80;99.90;;;;;;5054620;28;20462;-78
2022/02/02 22:48:19;;;;;;;17.60;6.07;;;8.80;99.90;;;;;;5036274;28;20083;-77
2022/02/02 22:50:45;;;;;;;19.55;6.50;;;8.80;99.90;;;;;;5054082;28;20513;-78
2022/02/02 22:53:10;;;;;;;19.23;6.82;;;8.80;99.90;;;;;;5053908;28;20049;-77
2022/02/02 22:55:36;;;;;;;17.63;7.22;;;8.80;99.90;;;;;;5053740;28;20398;-77
2022/02/02 22:58:02;;;;;;;15.48;6.05;;;8.80;99.90;;;;;;5035985;28;20074;-77
2022/02/02 23:00:36;;;;;;;20.67;7.45;;;8.80;99.90;;;;;;5035971;28;20386;-77
2022/02/02 23:03:04;;;;;;;16.83;6.60;;;8.80;99.90;;;;;;5053780;28;20032;-78
2022/02/02 23:05:55;;;;;;;18.13;6.45;;;8.80;99.90;;;;;;5053950;28;20071;-77
2022/02/02 23:08:18;;;;;;;15.90;6.70;;;8.70;99.90;;;;;;5053254;28;20075;-78
2022/02/02 23:10:44;;;;;;;19.00;6.67;;;8.70;99.90;;;;;;5035825;28;20049;-78
2022/02/02 23:13:11;;;;;;;14.68;6.63;;;8.70;99.90;;;;;;5053900;28;20518;-78
2022/02/02 23:18:13;;;;;;;15.60;6.88;;;8.60;99.90;;;;;;5053984;28;20470;-77
2022/02/02 23:20:40;;;;;;;16.73;6.47;;;8.70;99.90;;;;;;5035501;28;20127;-78
2022/02/02 23:23:06;;;;;;;17.08;6.35;;;8.60;99.90;;;;;;5035544;28;20070;-78
2022/02/02 23:25:35;;;;;;;16.75;6.40;;;8.60;99.90;;;;;;5053577;28;20394;-77
2022/02/02 23:28:02;;;;;;;22.20;6.65;;;8.60;99.90;;;;;;5025756;28;20009;-77
2022/02/02 23:30:32;;;;;;;16.60;6.00;;;8.50;99.90;;;;;;5015929;28;20026;-78
2022/02/02 23:33:00;;;;;;;22.77;8.40;;;8.50;99.90;;;;;;5033723;28;20379;-77
2022/02/02 23:35:28;;;;;;;21.08;7.63;;;8.60;99.90;;;;;;5015872;28;20112;-77
2022/02/02 23:37:54;;;;;;;18.23;7.28;;;8.60;99.90;;;;;;5033471;28;20029;-77
2022/02/02 23:40:19;;;;;;;16.77;7.47;;;8.60;99.90;;;;;;5033340;28;20028;-77
2022/02/02 23:42:45;;;;;;;17.25;6.90;;;10.70;99.90;;;;;;5033370;28;20034;-77
2022/02/02 23:45:11;;;;;;;18.63;6.93;;;8.60;99.90;;;;;;5015996;28;20020;-78
2022/02/02 23:47:43;;;;;;;17.45;6.85;;;8.60;99.90;;;;;;5033359;28;20026;-77
2022/02/02 23:50:12;;;;;;;16.20;6.70;;;8.50;99.90;;;;;;5033332;28;20022;-77
2022/02/02 23:52:48;;;;;;;;;;;8.60;99.90;;;;;;5033578;28;20028;-77
2022/02/02 23:55:20;;;;;;;21.80;6.63;;;7.70;99.90;;;;;;5015608;28;19948;-77
